sensor_id;sensor_type;location;lat;lon;timestamp;pressure;altitude;pressure_sealevel;temperature;humidity
60852;BME280;48553;50.766;2.900;2023-02-21T00:02:01;101506.88;;;7.90;95.20
60852;BME280;48553;50.766;2.900;2023-02-21T00:05:20;101504.47;;;7.88;95.10
60852;BME280;48553;50.766;2.900;2023-02-21T00:08:39;101505.78;;;7.91;95.20
60852;BME280;48553;50.766;2.900;2023-02-21T00:11:58;101505.28;;;7.89;95.21
60852;BME280;48553;50.766;2.900;2023-02-21T00:15:18;101509.59;;;7.90;95.05
60852;BME280;48553;50.766;2.900;2023-02-21T00:18:37;101506.06;;;7.89;95.25
60852;BME280;48553;50.766;2.900;2023-02-21T00:21:56;101510.72;;;7.89;95.44
60852;BME280;48553;50.766;2.900;2023-02-21T00:25:15;101519.72;;;7.89;95.04
60852;BME280;48553;50.766;2.900;2023-02-21T00:28:34;101515.06;;;7.90;95.12
60852;BME280;48553;50.766;2.900;2023-02-21T00:31:53;101511.81;;;7.88;95.35
60852;BME280;48553;50.766;2.900;2023-02-21T00:35:12;101515.38;;;7.88;95.02
60852;BME280;48553;50.766;2.900;2023-02-21T00:38:31;101505.56;;;7.87;95.36
60852;BME280;48553;50.766;2.900;2023-02-21T00:41:51;101505.03;;;7.85;95.06
60852;BME280;48553;50.766;2.900;2023-02-21T00:45:10;101502.53;;;7.89;95.31
60852;BME280;48553;50.766;2.900;2023-02-21T00:48:29;101497.88;;;7.89;95.14
60852;BME280;48553;50.766;2.900;2023-02-21T00:51:48;101499.59;;;7.85;95.14
60852;BME280;48553;50.766;2.900;2023-02-21T00:55:07;101501.72;;;7.88;95.10
60852;BME280;48553;50.766;2.900;2023-02-21T00:58:27;101496.56;;;7.87;95.24
60852;BME280;48553;50.766;2.900;2023-02-21T01:01:46;101500.69;;;7.84;95.54
60852;BME280;48553;50.766;2.900;2023-02-21T01:05:06;101491.72;;;7.84;95.50
60852;BME280;48553;50.766;2.900;2023-02-21T01:08:25;101491.72;;;7.84;95.38
60852;BME280;48553;50.766;2.900;2023-02-21T01:11:43;101489.00;;;7.84;95.35
60852;BME280;48553;50.766;2.900;2023-02-21T01:15:03;101489.00;;;7.84;95.33
60852;BME280;48553;50.766;2.900;2023-02-21T01:18:22;101488.16;;;7.83;95.16
60852;BME280;48553;50.766;2.900;2023-02-21T01:21:41;101488.16;;;7.83;95.44
60852;BME280;48553;50.766;2.900;2023-02-21T01:25:00;101489.88;;;7.79;95.63
60852;BME280;48553;50.766;2.900;2023-02-21T01:28:20;101496.66;;;7.82;95.65
60852;BME280;48553;50.766;2.900;2023-02-21T01:31:39;101487.66;;;7.81;95.32
60852;BME280;48553;50.766;2.900;2023-02-21T01:34:58;101490.41;;;7.81;95.62
60852;BME280;48553;50.766;2.900;2023-02-21T01:38:17;101482.22;;;7.81;95.49
60852;BME280;48553;50.766;2.900;2023-02-21T01:41:36;101479.78;;;7.80;95.55
60852;BME280;48553;50.766;2.900;2023-02-21T01:48:34;101465.84;;;7.81;95.33
60852;BME280;48553;50.766;2.900;2023-02-21T01:51:53;101472.91;;;7.82;95.37
60852;BME280;48553;50.766;2.900;2023-02-21T01:55:12;101482.22;;;7.81;95.40
60852;BME280;48553;50.766;2.900;2023-02-21T01:58:32;101462.28;;;7.81;95.39
60852;BME280;48553;50.766;2.900;2023-02-21T02:02:11;101472.38;;;7.80;95.56
60852;BME280;48553;50.766;2.900;2023-02-21T02:05:31;101470.16;;;7.82;95.56
60852;BME280;48553;50.766;2.900;2023-02-21T02:08:51;101464.50;;;7.79;95.71
60852;BME280;48553;50.766;2.900;2023-02-21T02:15:47;101457.13;;;7.79;95.70
60852;BME280;48553;50.766;2.900;2023-02-21T02:19:07;101450.28;;;7.82;95.52
60852;BME280;48553;50.766;2.900;2023-02-21T02:32:36;101430.03;;;7.83;95.32
60852;BME280;48553;50.766;2.900;2023-02-21T02:35:45;101424.06;;;7.81;95.25
60852;BME280;48553;50.766;2.900;2023-02-21T02:39:23;101422.75;;;7.78;95.50
60852;BME280;48553;50.766;2.900;2023-02-21T02:45:57;101428.22;;;7.78;95.32
60852;BME280;48553;50.766;2.900;2023-02-21T02:49:08;101426.59;;;7.77;95.29
60852;BME280;48553;50.766;2.900;2023-02-21T02:52:10;101418.94;;;7.79;95.56
60852;BME280;48553;50.766;2.900;2023-02-21T02:55:31;101416.72;;;7.81;95.24
60852;BME280;48553;50.766;2.900;2023-02-21T03:01:48;101422.47;;;7.80;95.35
60852;BME280;48553;50.766;2.900;2023-02-21T03:05:17;101421.66;;;7.79;95.68
60852;BME280;48553;50.766;2.900;2023-02-21T03:11:31;101422.75;;;7.78;95.43
60852;BME280;48553;50.766;2.900;2023-02-21T03:15:00;101424.41;;;7.79;95.53
60852;BME280;48553;50.766;2.900;2023-02-21T03:18:08;101422.75;;;7.78;95.72
60852;BME280;48553;50.766;2.900;2023-02-21T03:21:24;101415.38;;;7.79;95.68
60852;BME280;48553;50.766;2.900;2023-02-21T03:24:27;101411.84;;;7.78;95.50
60852;BME280;48553;50.766;2.900;2023-02-21T03:27:29;101412.66;;;7.79;95.69
60852;BME280;48553;50.766;2.900;2023-02-21T03:30:30;101418.63;;;7.81;95.42
60852;BME280;48553;50.766;2.900;2023-02-21T03:33:31;101419.13;;;7.83;95.61
60852;BME280;48553;50.766;2.900;2023-02-21T03:36:32;101408.81;;;7.80;95.38
60852;BME280;48553;50.766;2.900;2023-02-21T03:39:33;101410.44;;;7.81;95.62
60852;BME280;48553;50.766;2.900;2023-02-21T03:42:33;101418.09;;;7.79;95.59
60852;BME280;48553;50.766;2.900;2023-02-21T03:45:35;101410.44;;;7.81;95.33
60852;BME280;48553;50.766;2.900;2023-02-21T03:48:35;101411.56;;;7.80;95.50
60852;BME280;48553;50.766;2.900;2023-02-21T03:51:35;101407.50;;;7.77;95.50
60852;BME280;48553;50.766;2.900;2023-02-21T03:54:36;101409.41;;;7.77;95.61
60852;BME280;48553;50.766;2.900;2023-02-21T03:57:37;101398.72;;;7.80;95.77
60852;BME280;48553;50.766;2.900;2023-02-21T04:00:38;101404.16;;;7.80;95.79
60852;BME280;48553;50.766;2.900;2023-02-21T04:03:38;101404.97;;;7.81;95.38
60852;BME280;48553;50.766;2.900;2023-02-21T04:06:38;101400.63;;;7.80;95.40
60852;BME280;48553;50.766;2.900;2023-02-21T04:09:39;101397.09;;;7.79;95.90
60852;BME280;48553;50.766;2.900;2023-02-21T04:12:40;101388.59;;;7.81;95.65
60852;BME280;48553;50.766;2.900;2023-02-21T04:15:40;101397.63;;;7.81;95.58
60852;BME280;48553;50.766;2.900;2023-02-21T04:18:41;101399.00;;;7.79;95.64
60852;BME280;48553;50.766;2.900;2023-02-21T04:21:41;101397.63;;;7.81;95.40
60852;BME280;48553;50.766;2.900;2023-02-21T04:24:43;101401.94;;;7.82;95.84
60852;BME280;48553;50.766;2.900;2023-02-21T04:27:43;101403.66;;;7.78;95.66
60852;BME280;48553;50.766;2.900;2023-02-21T04:30:43;101393.25;;;7.80;95.82
60852;BME280;48553;50.766;2.900;2023-02-21T04:33:44;101392.16;;;7.81;95.84
60852;BME280;48553;50.766;2.900;2023-02-21T04:36:44;101388.59;;;7.81;95.70
60852;BME280;48553;50.766;2.900;2023-02-21T04:39:45;101394.38;;;7.79;95.96
60852;BME280;48553;50.766;2.900;2023-02-21T04:42:45;101387.00;;;7.80;95.69
60852;BME280;48553;50.766;2.900;2023-02-21T04:45:45;101387.00;;;7.80;95.73
60852;BME280;48553;50.766;2.900;2023-02-21T04:48:48;101379.09;;;7.78;95.76
60852;BME280;48553;50.766;2.900;2023-02-21T04:51:49;101384.25;;;7.80;95.92
60852;BME280;48553;50.766;2.900;2023-02-21T04:54:49;101380.72;;;7.79;96.12
60852;BME280;48553;50.766;2.900;2023-02-21T04:57:50;101384.84;;;7.77;96.13
60852;BME280;48553;50.766;2.900;2023-02-21T05:00:50;101379.09;;;7.78;96.08
60852;BME280;48553;50.766;2.900;2023-02-21T05:03:50;101374.25;;;7.75;96.07
60852;BME280;48553;50.766;2.900;2023-02-21T05:06:51;101370.13;;;7.78;96.32
60852;BME280;48553;50.766;2.900;2023-02-21T05:09:51;101368.81;;;7.75;96.02
60852;BME280;48553;50.766;2.900;2023-02-21T05:12:52;101368.19;;;7.78;96.20
60852;BME280;48553;50.766;2.900;2023-02-21T05:15:52;101372.03;;;7.77;96.12
60852;BME280;48553;50.766;2.900;2023-02-21T05:18:52;101365.47;;;7.78;96.06
60852;BME280;48553;50.766;2.900;2023-02-21T05:21:58;101369.31;;;7.77;96.33
60852;BME280;48553;50.766;2.900;2023-02-21T05:24:58;101366.59;;;7.77;96.05
60852;BME280;48553;50.766;2.900;2023-02-21T05:27:59;101366.59;;;7.77;96.20
60852;BME280;48553;50.766;2.900;2023-02-21T05:30:59;101367.38;;;7.78;95.90
60852;BME280;48553;50.766;2.900;2023-02-21T05:34:00;101364.66;;;7.78;96.25
60852;BME280;48553;50.766;2.900;2023-02-21T05:37:00;101371.53;;;7.75;96.46
60852;BME280;48553;50.766;2.900;2023-02-21T05:40:01;101357.88;;;7.75;95.97
60852;BME280;48553;50.766;2.900;2023-02-21T05:43:01;101363.63;;;7.73;96.06
60852;BME280;48553;50.766;2.900;2023-02-21T05:46:02;101364.94;;;7.76;96.25
60852;BME280;48553;50.766;2.900;2023-02-21T05:49:03;101355.66;;;7.77;95.84
60852;BME280;48553;50.766;2.900;2023-02-21T05:52:04;101355.97;;;7.76;96.16
60852;BME280;48553;50.766;2.900;2023-02-21T05:55:04;101355.16;;;7.75;96.18
60852;BME280;48553;50.766;2.900;2023-02-21T05:58:05;101352.44;;;7.75;95.88
60852;BME280;48553;50.766;2.900;2023-02-21T06:01:05;101350.22;;;7.77;95.73
60852;BME280;48553;50.766;2.900;2023-02-21T06:04:06;101347.25;;;7.73;96.24
60852;BME280;48553;50.766;2.900;2023-02-21T06:07:07;101343.72;;;7.73;96.10
60852;BME280;48553;50.766;2.900;2023-02-21T06:10:07;101345.34;;;7.74;95.83
60852;BME280;48553;50.766;2.900;2023-02-21T06:13:08;101338.28;;;7.73;96.00
60852;BME280;48553;50.766;2.900;2023-02-21T06:16:09;101340.19;;;7.72;96.12
60852;BME280;48553;50.766;2.900;2023-02-21T06:19:11;101338.88;;;7.70;96.20
60852;BME280;48553;50.766;2.900;2023-02-21T06:22:12;101339.06;;;7.73;96.19
60852;BME280;48553;50.766;2.900;2023-02-21T06:25:13;101333.91;;;7.72;96.32
60852;BME280;48553;50.766;2.900;2023-02-21T06:28:13;101331.50;;;7.70;95.98
60852;BME280;48553;50.766;2.900;2023-02-21T06:31:15;101340.78;;;7.69;96.26
60852;BME280;48553;50.766;2.900;2023-02-21T06:34:16;101338.88;;;7.70;96.09
60852;BME280;48553;50.766;2.900;2023-02-21T06:37:17;101334.75;;;7.72;96.04
60852;BME280;48553;50.766;2.900;2023-02-21T06:40:18;101328.78;;;7.70;96.30
60852;BME280;48553;50.766;2.900;2023-02-21T06:43:18;101336.63;;;7.72;95.87
60852;BME280;48553;50.766;2.900;2023-02-21T06:46:21;101335.34;;;7.69;96.06
60852;BME280;48553;50.766;2.900;2023-02-21T06:49:22;101340.19;;;7.72;95.99
60852;BME280;48553;50.766;2.900;2023-02-21T06:52:22;101338.38;;;7.68;96.04
60852;BME280;48553;50.766;2.900;2023-02-21T06:55:23;101339.69;;;7.70;95.76
60852;BME280;48553;50.766;2.900;2023-02-21T06:58:23;101331.81;;;7.69;95.94
60852;BME280;48553;50.766;2.900;2023-02-21T07:01:25;101334.81;;;7.67;95.95
60852;BME280;48553;50.766;2.900;2023-02-21T07:04:27;101338.06;;;7.69;95.83
60852;BME280;48553;50.766;2.900;2023-02-21T07:07:27;101336.47;;;7.68;96.17
60852;BME280;48553;50.766;2.900;2023-02-21T07:10:28;101335.84;;;7.71;95.77
60852;BME280;48553;50.766;2.900;2023-02-21T07:13:29;101328.78;;;7.70;95.77
60852;BME280;48553;50.766;2.900;2023-02-21T07:16:29;101340.78;;;7.69;95.97
60852;BME280;48553;50.766;2.900;2023-02-21T07:19:30;101327.97;;;7.70;95.76
60852;BME280;48553;50.766;2.900;2023-02-21T07:22:30;101327.47;;;7.68;96.04
60852;BME280;48553;50.766;2.900;2023-02-21T07:25:30;101332.09;;;7.67;96.19
60852;BME280;48553;50.766;2.900;2023-02-21T07:28:31;101330.38;;;7.71;95.72
60852;BME280;48553;50.766;2.900;2023-02-21T07:31:31;101322.53;;;7.70;95.79
60852;BME280;48553;50.766;2.900;2023-02-21T07:34:32;101329.38;;;7.67;96.05
60852;BME280;48553;50.766;2.900;2023-02-21T07:37:33;101333.44;;;7.70;95.58
60852;BME280;48553;50.766;2.900;2023-02-21T07:40:33;101331.28;;;7.67;96.21
60852;BME280;48553;50.766;2.900;2023-02-21T07:43:34;101333.44;;;7.70;95.95
60852;BME280;48553;50.766;2.900;2023-02-21T07:46:34;101331.00;;;7.68;95.96
60852;BME280;48553;50.766;2.900;2023-02-21T07:49:39;101323.31;;;7.70;95.96
60852;BME280;48553;50.766;2.900;2023-02-21T07:52:40;101338.06;;;7.69;95.98
60852;BME280;48553;50.766;2.900;2023-02-21T07:55:40;101338.06;;;7.69;96.06
60852;BME280;48553;50.766;2.900;2023-02-21T07:58:41;101335.66;;;7.68;96.18
60852;BME280;48553;50.766;2.900;2023-02-21T08:01:41;101335.13;;;7.66;96.48
60852;BME280;48553;50.766;2.900;2023-02-21T08:04:42;101332.31;;;7.71;96.06
60852;BME280;48553;50.766;2.900;2023-02-21T08:07:42;101336.97;;;7.70;96.19
60852;BME280;48553;50.766;2.900;2023-02-21T08:10:43;101336.97;;;7.70;96.16
60852;BME280;48553;50.766;2.900;2023-02-21T08:13:43;101348.38;;;7.72;95.89
60852;BME280;48553;50.766;2.900;2023-02-21T08:16:44;101346.47;;;7.73;96.20
60852;BME280;48553;50.766;2.900;2023-02-21T08:19:44;101339.59;;;7.76;96.00
60852;BME280;48553;50.766;2.900;2023-02-21T08:22:45;101339.06;;;7.73;95.98
60852;BME280;48553;50.766;2.900;2023-02-21T08:25:46;101346.47;;;7.73;95.93
60852;BME280;48553;50.766;2.900;2023-02-21T08:28:46;101343.72;;;7.73;96.10
60852;BME280;48553;50.766;2.900;2023-02-21T08:31:47;101341.00;;;7.73;96.39
60852;BME280;48553;50.766;2.900;2023-02-21T08:34:48;101344.25;;;7.75;96.39
60852;BME280;48553;50.766;2.900;2023-02-21T08:37:49;101345.34;;;7.74;96.45
60852;BME280;48553;50.766;2.900;2023-02-21T08:40:50;101348.56;;;7.76;96.19
60852;BME280;48553;50.766;2.900;2023-02-21T08:43:51;101341.41;;;7.80;96.33
60852;BME280;48553;50.766;2.900;2023-02-21T08:46:51;101337.06;;;7.79;96.09
60852;BME280;48553;50.766;2.900;2023-02-21T08:49:51;101341.69;;;7.79;96.45
60852;BME280;48553;50.766;2.900;2023-02-21T08:52:52;101342.22;;;7.81;96.15
60852;BME280;48553;50.766;2.900;2023-02-21T08:55:52;101343.34;;;7.80;96.44
60852;BME280;48553;50.766;2.900;2023-02-21T08:58:53;101338.69;;;7.80;96.46
60852;BME280;48553;50.766;2.900;2023-02-21T09:01:54;101334.84;;;7.81;96.60
60852;BME280;48553;50.766;2.900;2023-02-21T09:04:54;101330.19;;;7.82;96.22
60852;BME280;48553;50.766;2.900;2023-02-21T09:07:57;101334.84;;;7.81;96.41
60852;BME280;48553;50.766;2.900;2023-02-21T09:10:58;101346.56;;;7.82;96.63
60852;BME280;48553;50.766;2.900;2023-02-21T09:14:00;101333.72;;;7.82;95.95
60852;BME280;48553;50.766;2.900;2023-02-21T09:17:01;101338.56;;;7.85;96.11
60852;BME280;48553;50.766;2.900;2023-02-21T09:20:05;101337.25;;;7.83;96.24
60852;BME280;48553;50.766;2.900;2023-02-21T09:23:06;101330.72;;;7.84;96.25
60852;BME280;48553;50.766;2.900;2023-02-21T09:26:07;101333.44;;;7.84;96.38
60852;BME280;48553;50.766;2.900;2023-02-21T09:29:07;101334.25;;;7.84;96.32
60852;BME280;48553;50.766;2.900;2023-02-21T09:32:08;101340.22;;;7.86;96.44
60852;BME280;48553;50.766;2.900;2023-02-21T09:35:10;101333.94;;;7.86;96.11
60852;BME280;48553;50.766;2.900;2023-02-21T09:38:13;101333.13;;;7.85;96.18
60852;BME280;48553;50.766;2.900;2023-02-21T09:41:13;101330.38;;;7.85;96.55
60852;BME280;48553;50.766;2.900;2023-02-21T09:44:17;101330.91;;;7.87;96.26
60852;BME280;48553;50.766;2.900;2023-02-21T09:47:37;101326.56;;;7.86;96.61
60852;BME280;48553;50.766;2.900;2023-02-21T09:50:49;101326.25;;;7.88;96.39
60852;BME280;48553;50.766;2.900;2023-02-21T09:53:53;101328.97;;;7.88;96.68
60852;BME280;48553;50.766;2.900;2023-02-21T09:56:56;101330.91;;;7.87;96.18
60852;BME280;48553;50.766;2.900;2023-02-21T09:59:58;101316.44;;;7.87;96.43
60852;BME280;48553;50.766;2.900;2023-02-21T10:06:38;101320.78;;;7.88;96.57
60852;BME280;48553;50.766;2.900;2023-02-21T10:10:09;101313.44;;;7.88;96.30
60852;BME280;48553;50.766;2.900;2023-02-21T10:17:35;101317.75;;;7.89;96.46
60852;BME280;48553;50.766;2.900;2023-02-21T10:23:34;101317.47;;;7.91;96.52
60852;BME280;48553;50.766;2.900;2023-02-21T10:26:37;101312.81;;;7.91;96.37
60852;BME280;48553;50.766;2.900;2023-02-21T10:32:48;101316.03;;;7.93;96.53
60852;BME280;48553;50.766;2.900;2023-02-21T10:35:49;101319.56;;;7.94;96.24
60852;BME280;48553;50.766;2.900;2023-02-21T10:38:55;101314.41;;;7.92;96.48
60852;BME280;48553;50.766;2.900;2023-02-21T10:41:57;101312.19;;;7.94;96.34
60852;BME280;48553;50.766;2.900;2023-02-21T10:44:59;101314.63;;;7.96;96.37
60852;BME280;48553;50.766;2.900;2023-02-21T10:48:04;101311.91;;;7.96;96.42
60852;BME280;48553;50.766;2.900;2023-02-21T10:54:20;101309.16;;;7.96;96.93
60852;BME280;48553;50.766;2.900;2023-02-21T10:57:21;101309.38;;;8.00;96.63
60852;BME280;48553;50.766;2.900;2023-02-21T11:00:29;101305.81;;;7.99;96.70
60852;BME280;48553;50.766;2.900;2023-02-21T11:03:31;101299.56;;;7.99;96.62
60852;BME280;48553;50.766;2.900;2023-02-21T11:06:35;101320.81;;;8.02;96.39
60852;BME280;48553;50.766;2.900;2023-02-21T11:09:42;101309.56;;;8.03;96.42
60852;BME280;48553;50.766;2.900;2023-02-21T11:12:43;101320.81;;;8.02;96.63
60852;BME280;48553;50.766;2.900;2023-02-21T11:15:44;101309.56;;;8.03;96.22
60852;BME280;48553;50.766;2.900;2023-02-21T11:18:45;101310.38;;;8.04;96.62
60852;BME280;48553;50.766;2.900;2023-02-21T11:21:56;101310.38;;;8.04;96.44
60852;BME280;48553;50.766;2.900;2023-02-21T11:25:04;101293.69;;;8.05;96.39
60852;BME280;48553;50.766;2.900;2023-02-21T11:31:29;101290.03;;;8.10;96.25
60852;BME280;48553;50.766;2.900;2023-02-21T11:34:31;101290.84;;;8.10;96.37
60852;BME280;48553;50.766;2.900;2023-02-21T11:37:32;101280.75;;;8.11;96.40
60852;BME280;48553;50.766;2.900;2023-02-21T11:40:44;101274.47;;;8.10;96.60
60852;BME280;48553;50.766;2.900;2023-02-21T11:43:51;101274.97;;;8.12;96.44
60852;BME280;48553;50.766;2.900;2023-02-21T11:47:00;101277.69;;;8.12;96.68
60852;BME280;48553;50.766;2.900;2023-02-21T11:50:26;101264.88;;;8.13;96.56
60852;BME280;48553;50.766;2.900;2023-02-21T11:53:40;101258.81;;;8.16;96.31
60852;BME280;48553;50.766;2.900;2023-02-21T11:56:52;101258.00;;;8.15;96.16
60852;BME280;48553;50.766;2.900;2023-02-21T12:10:05;101242.13;;;8.18;96.22
60852;BME280;48553;50.766;2.900;2023-02-21T12:23:20;101226.41;;;8.23;96.05
60852;BME280;48553;50.766;2.900;2023-02-21T12:33:12;101216.50;;;8.27;96.01
60852;BME280;48553;50.766;2.900;2023-02-21T12:36:24;101209.09;;;8.28;95.73
60852;BME280;48553;50.766;2.900;2023-02-21T12:40:18;101209.09;;;8.28;96.25
60852;BME280;48553;50.766;2.900;2023-02-21T12:43:33;101198.19;;;8.28;96.28
60852;BME280;48553;50.766;2.900;2023-02-21T12:46:44;101197.88;;;8.29;96.21
60852;BME280;48553;50.766;2.900;2023-02-21T12:49:56;101201.91;;;8.32;95.65
60852;BME280;48553;50.766;2.900;2023-02-21T12:56:11;101193.72;;;8.32;96.03
60852;BME280;48553;50.766;2.900;2023-02-21T12:59:23;101187.13;;;8.33;95.66
60852;BME280;48553;50.766;2.900;2023-02-21T13:02:54;101182.50;;;8.33;95.89
60852;BME280;48553;50.766;2.900;2023-02-21T13:09:11;101181.06;;;8.36;95.85
60852;BME280;48553;50.766;2.900;2023-02-21T13:12:18;101172.03;;;8.35;95.94
60852;BME280;48553;50.766;2.900;2023-02-21T13:15:22;101170.16;;;8.36;95.68
60852;BME280;48553;50.766;2.900;2023-02-21T13:18:35;101170.44;;;8.34;96.01
60852;BME280;48553;50.766;2.900;2023-02-21T13:28:11;101155.06;;;8.39;95.71
60852;BME280;48553;50.766;2.900;2023-02-21T13:31:32;101146.88;;;8.39;95.88
60852;BME280;48553;50.766;2.900;2023-02-21T13:34:45;101131.59;;;8.37;95.56
60852;BME280;48553;50.766;2.900;2023-02-21T13:37:49;101133.22;;;8.39;95.50
60852;BME280;48553;50.766;2.900;2023-02-21T13:40:53;101130.47;;;8.39;95.77
60852;BME280;48553;50.766;2.900;2023-02-21T13:44:06;101121.16;;;8.40;95.80
60852;BME280;48553;50.766;2.900;2023-02-21T13:47:27;101126.34;;;8.41;95.81
60852;BME280;48553;50.766;2.900;2023-02-21T13:54:07;101114.28;;;8.42;95.68
60852;BME280;48553;50.766;2.900;2023-02-21T13:57:28;101119.75;;;8.42;95.52
60852;BME280;48553;50.766;2.900;2023-02-21T14:03:31;101102.25;;;8.43;95.52
60852;BME280;48553;50.766;2.900;2023-02-21T14:06:35;101108.81;;;8.42;95.62
60852;BME280;48553;50.766;2.900;2023-02-21T14:09:39;101106.09;;;8.42;95.70
60852;BME280;48553;50.766;2.900;2023-02-21T14:12:43;101111.56;;;8.42;95.72
60852;BME280;48553;50.766;2.900;2023-02-21T14:15:46;101102.56;;;8.42;95.96
60852;BME280;48553;50.766;2.900;2023-02-21T14:18:58;101101.47;;;8.43;95.44
60852;BME280;48553;50.766;2.900;2023-02-21T14:22:14;101099.84;;;8.42;95.54
60852;BME280;48553;50.766;2.900;2023-02-21T14:25:21;101102.56;;;8.42;95.53
60852;BME280;48553;50.766;2.900;2023-02-21T14:31:52;101091.84;;;8.45;95.47
60852;BME280;48553;50.766;2.900;2023-02-21T14:34:55;101089.91;;;8.46;95.51
60852;BME280;48553;50.766;2.900;2023-02-21T14:38:02;101086.69;;;8.44;95.78
60852;BME280;48553;50.766;2.900;2023-02-21T14:54:57;101073.22;;;8.47;95.23
60852;BME280;48553;50.766;2.900;2023-02-21T15:04:48;101059.84;;;8.46;95.23
60852;BME280;48553;50.766;2.900;2023-02-21T15:07:56;101057.94;;;8.46;94.99
60852;BME280;48553;50.766;2.900;2023-02-21T15:11:00;101052.75;;;8.45;94.88
60852;BME280;48553;50.766;2.900;2023-02-21T15:14:31;101052.75;;;8.45;95.12
60852;BME280;48553;50.766;2.900;2023-02-21T15:17:35;101059.38;;;8.44;95.20
60852;BME280;48553;50.766;2.900;2023-02-21T15:20:38;101045.72;;;8.44;95.15
60852;BME280;48553;50.766;2.900;2023-02-21T15:23:41;101043.78;;;8.44;95.06
60852;BME280;48553;50.766;2.900;2023-02-21T15:26:42;101044.56;;;8.45;94.82
60852;BME280;48553;50.766;2.900;2023-02-21T15:29:43;101045.41;;;8.45;94.71
60852;BME280;48553;50.766;2.900;2023-02-21T15:39:37;101027.56;;;8.48;94.73
60852;BME280;48553;50.766;2.900;2023-02-21T15:42:40;101023.56;;;8.45;94.99
60852;BME280;48553;50.766;2.900;2023-02-21T15:45:45;101027.56;;;8.48;94.85
60852;BME280;48553;50.766;2.900;2023-02-21T15:48:48;101021.63;;;8.46;95.09
60852;BME280;48553;50.766;2.900;2023-02-21T15:51:49;101008.75;;;8.46;94.93
60852;BME280;48553;50.766;2.900;2023-02-21T15:54:49;101021.63;;;8.46;94.89
60852;BME280;48553;50.766;2.900;2023-02-21T15:58:14;101013.72;;;8.44;95.08
60852;BME280;48553;50.766;2.900;2023-02-21T16:01:19;101008.25;;;8.44;94.88
60852;BME280;48553;50.766;2.900;2023-02-21T16:04:21;101003.94;;;8.43;94.65
60852;BME280;48553;50.766;2.900;2023-02-21T16:07:32;101000.06;;;8.44;94.77
60852;BME280;48553;50.766;2.900;2023-02-21T16:10:34;100996.06;;;8.42;94.58
60852;BME280;48553;50.766;2.900;2023-02-21T16:13:38;100997.19;;;8.41;94.81
60852;BME280;48553;50.766;2.900;2023-02-21T16:16:39;100991.72;;;8.41;94.61
60852;BME280;48553;50.766;2.900;2023-02-21T16:19:43;100991.19;;;8.39;94.55
60852;BME280;48553;50.766;2.900;2023-02-21T16:22:47;100991.50;;;8.37;94.55
60852;BME280;48553;50.766;2.900;2023-02-21T16:29:11;100982.31;;;8.33;94.65
60852;BME280;48553;50.766;2.900;2023-02-21T16:32:19;100987.28;;;8.31;93.90
60852;BME280;48553;50.766;2.900;2023-02-21T16:35:22;100984.41;;;8.27;93.80
60852;BME280;48553;50.766;2.900;2023-02-21T16:38:25;100985.00;;;8.24;93.86
60852;BME280;48553;50.766;2.900;2023-02-21T16:41:25;100981.81;;;8.22;93.84
60852;BME280;48553;50.766;2.900;2023-02-21T16:44:26;100982.91;;;8.21;93.70
60852;BME280;48553;50.766;2.900;2023-02-21T16:47:27;100979.69;;;8.19;93.31
60852;BME280;48553;50.766;2.900;2023-02-21T16:50:30;100981.63;;;8.19;93.43
60852;BME280;48553;50.766;2.900;2023-02-21T16:53:31;100982.25;;;8.15;93.39
60852;BME280;48553;50.766;2.900;2023-02-21T16:56:32;100995.22;;;8.10;93.26
60852;BME280;48553;50.766;2.900;2023-02-21T16:59:32;100993.28;;;8.10;93.22
60852;BME280;48553;50.766;2.900;2023-02-21T17:02:33;100984.44;;;8.05;93.22
60852;BME280;48553;50.766;2.900;2023-02-21T17:05:33;100976.56;;;8.03;92.80
60852;BME280;48553;50.766;2.900;2023-02-21T17:08:35;100983.44;;;8.01;93.01
60852;BME280;48553;50.766;2.900;2023-02-21T17:11:35;100975.09;;;7.97;93.00
60852;BME280;48553;50.766;2.900;2023-02-21T17:14:36;100977.84;;;7.97;92.83
60852;BME280;48553;50.766;2.900;2023-02-21T17:17:37;100974.09;;;7.93;92.63
60852;BME280;48553;50.766;2.900;2023-02-21T17:20:38;100970.69;;;7.87;92.67
60852;BME280;48553;50.766;2.900;2023-02-21T17:23:39;100969.41;;;7.85;92.60
60852;BME280;48553;50.766;2.900;2023-02-21T17:26:40;100973.75;;;7.86;92.60
60852;BME280;48553;50.766;2.900;2023-02-21T17:29:41;100974.34;;;7.83;92.21
60852;BME280;48553;50.766;2.900;2023-02-21T17:32:41;100970.81;;;7.82;92.03
60852;BME280;48553;50.766;2.900;2023-02-21T17:35:42;100979.66;;;7.79;92.23
60852;BME280;48553;50.766;2.900;2023-02-21T17:38:43;100975.59;;;7.77;92.06
60852;BME280;48553;50.766;2.900;2023-02-21T17:41:48;100980.25;;;7.76;92.00
60852;BME280;48553;50.766;2.900;2023-02-21T17:44:49;100985.22;;;7.74;91.88
60852;BME280;48553;50.766;2.900;2023-02-21T17:47:51;100987.75;;;7.70;91.95
60852;BME280;48553;50.766;2.900;2023-02-21T17:50:53;100978.59;;;7.66;91.63
60852;BME280;48553;50.766;2.900;2023-02-21T17:53:54;100994.16;;;7.66;91.57
60852;BME280;48553;50.766;2.900;2023-02-21T17:56:55;100973.75;;;7.63;91.73
60852;BME280;48553;50.766;2.900;2023-02-21T17:59:56;100979.50;;;7.62;91.56
60852;BME280;48553;50.766;2.900;2023-02-21T18:02:56;100980.94;;;7.59;91.69
60852;BME280;48553;50.766;2.900;2023-02-21T18:05:57;100971.47;;;7.57;91.23
60852;BME280;48553;50.766;2.900;2023-02-21T18:08:58;100970.63;;;7.56;91.64
60852;BME280;48553;50.766;2.900;2023-02-21T18:11:59;100965.19;;;7.56;91.68
60852;BME280;48553;50.766;2.900;2023-02-21T18:15:00;100968.84;;;7.51;91.45
60852;BME280;48553;50.766;2.900;2023-02-21T18:18:00;100968.38;;;7.49;91.52
60852;BME280;48553;50.766;2.900;2023-02-21T18:21:05;100968.38;;;7.49;91.47
60852;BME280;48553;50.766;2.900;2023-02-21T18:24:09;100968.97;;;7.46;91.32
60852;BME280;48553;50.766;2.900;2023-02-21T18:27:10;100974.56;;;7.41;91.43
60852;BME280;48553;50.766;2.900;2023-02-21T18:30:15;100960.91;;;7.41;91.20
60852;BME280;48553;50.766;2.900;2023-02-21T18:33:17;100970.19;;;7.40;91.20